createdAt,value
2023-03-19T01:37:05.063Z,5.1
2023-03-19T01:42:55.890Z,5.2
2023-03-19T01:48:47.999Z,5.2
2023-03-19T01:54:38.795Z,5.1
2023-03-19T02:00:30.422Z,5.2
2023-03-19T02:06:21.638Z,4.9
2023-03-19T02:12:13.354Z,5
2023-03-19T02:18:04.665Z,4.8
2023-03-19T02:23:56.827Z,4.6
2023-03-19T02:29:50.643Z,4.3
2023-03-19T02:35:42.357Z,4.3
2023-03-19T02:41:33.149Z,3.7
2023-03-19T02:47:24.524Z,4.1
2023-03-19T02:53:15.443Z,4.4
2023-03-19T02:59:06.574Z,4.2
2023-03-19T03:04:57.838Z,4.3
2023-03-19T03:10:49.188Z,3.8
2023-03-19T03:16:40.280Z,4.4
2023-03-19T03:22:33.487Z,4.3
2023-03-19T03:28:24.580Z,4.1
2023-03-19T03:34:15.690Z,3.9
2023-03-19T03:40:07.120Z,3.7
2023-03-19T03:45:57.494Z,3.6
2023-03-19T03:51:48.262Z,3.9
2023-03-19T03:57:40.214Z,3.4
2023-03-19T04:03:31.456Z,3.6
2023-03-19T04:09:23.481Z,3
2023-03-19T04:15:14.913Z,2.7
2023-03-19T04:21:06.654Z,3.2
2023-03-19T04:26:57.925Z,3.6
2023-03-19T04:32:50.186Z,3.4
2023-03-19T04:38:41.909Z,3.4
2023-03-19T04:44:33.809Z,3.3
2023-03-19T04:50:25.063Z,3.3
2023-03-19T04:56:16.412Z,3.6
2023-03-19T05:02:07.911Z,3.7
2023-03-19T05:07:58.621Z,3.3
2023-03-19T05:13:51.684Z,3.3
2023-03-19T05:19:42.703Z,3.2
2023-03-19T05:25:33.633Z,3.1
2023-03-19T05:31:25.569Z,3
2023-03-19T05:37:17.917Z,2.8
2023-03-19T05:43:09.488Z,3
2023-03-19T05:49:00.505Z,2.6
2023-03-19T05:54:51.752Z,2.9
2023-03-19T06:00:43.063Z,2.6
2023-03-19T06:06:33.673Z,2.4
2023-03-19T06:12:24.672Z,2.8
2023-03-19T06:18:15.368Z,2.9
2023-03-19T06:24:07.419Z,3
2023-03-19T06:29:58.626Z,3.5
2023-03-19T06:35:50.088Z,3
2023-03-19T06:41:40.689Z,3.3
2023-03-19T06:47:32.340Z,4.7
2023-03-19T06:53:25.057Z,4.6
2023-03-19T06:59:17.362Z,4
2023-03-19T07:05:08.126Z,3.4
2023-03-19T07:10:59.364Z,3.7
2023-03-19T07:16:50.677Z,2.9
2023-03-19T07:22:42.548Z,3.2
2023-03-19T07:28:35.340Z,3
2023-03-19T07:34:26.224Z,3.3
2023-03-19T07:40:18.261Z,2.8
2023-03-19T07:46:09.850Z,3.2
2023-03-19T07:51:59.095Z,3
2023-03-19T07:57:48.205Z,3.1
2023-03-19T08:03:40.858Z,2.9
2023-03-19T08:09:32.712Z,2.7
2023-03-19T08:15:25.235Z,3.9
2023-03-19T08:21:18.359Z,3
2023-03-19T08:27:09.179Z,3.1
2023-03-19T08:33:02.000Z,3.4
2023-03-19T08:38:53.946Z,3.2
2023-03-19T08:44:47.919Z,3.6
2023-03-19T08:50:39.864Z,3.4
2023-03-19T08:56:32.644Z,3.5
2023-03-19T09:02:23.531Z,3.8
2023-03-19T09:08:14.602Z,4
2023-03-19T09:14:05.546Z,4.1
2023-03-19T09:19:57.062Z,4
2023-03-19T09:25:47.418Z,4.2
2023-03-19T09:31:39.189Z,4.2
2023-03-19T09:37:29.849Z,3.9
2023-03-19T09:43:22.025Z,4.7
2023-03-19T09:49:12.935Z,4.8
2023-03-19T09:55:03.568Z,4.5
2023-03-19T10:00:53.884Z,4
2023-03-19T10:06:44.298Z,3.4
2023-03-19T10:12:34.557Z,3.5
2023-03-19T10:18:25.649Z,3.4
2023-03-19T10:24:17.020Z,3.2
2023-03-19T10:30:07.825Z,3.1
2023-03-19T10:35:58.033Z,2.8
2023-03-19T10:41:48.627Z,3
2023-03-19T10:47:39.421Z,2.8
2023-03-19T10:53:29.863Z,3
2023-03-19T10:59:20.869Z,2.9
2023-03-19T11:05:10.760Z,2.5
2023-03-19T11:11:01.519Z,2.8
2023-03-19T11:16:53.098Z,2.7
2023-03-19T11:22:43.707Z,2.3
2023-03-19T11:29:43.819Z,2.1
2023-03-19T11:35:33.162Z,2.4
2023-03-19T11:41:25.189Z,2.7
2023-03-19T11:47:33.489Z,2.3
2023-03-19T11:53:22.561Z,2.4
2023-03-19T11:59:12.747Z,3.6
2023-03-19T12:05:06.247Z,2.6
2023-03-19T12:10:57.022Z,2.3
2023-03-19T12:16:54.986Z,2.4
2023-03-19T12:22:44.837Z,2.7
2023-03-19T12:28:35.337Z,2.1
2023-03-19T12:34:30.184Z,2
2023-03-19T12:40:21.796Z,1.8
2023-03-19T12:46:12.818Z,1.8
2023-03-19T12:52:03.519Z,1.5
2023-03-19T12:57:54.980Z,1.4
2023-03-19T13:03:46.358Z,1.4
2023-03-19T13:09:37.130Z,1.5
2023-03-19T13:15:28.942Z,1.5
2023-03-19T13:21:20.299Z,1.5
2023-03-19T13:27:12.068Z,1.4
2023-03-19T13:33:04.084Z,2.1
2023-03-19T13:38:54.794Z,2
2023-03-19T13:44:45.998Z,1.5
2023-03-19T13:50:38.909Z,1.1
2023-03-19T13:56:36.873Z,0.8
2023-03-19T14:02:26.935Z,0.9
2023-03-19T14:08:17.837Z,0.6
2023-03-19T14:14:09.948Z,0.8
2023-03-19T14:20:09.192Z,0.7
2023-03-19T14:26:00.425Z,0.5
2023-03-19T14:31:52.446Z,0.4
2023-03-19T14:37:43.881Z,0.5
2023-03-19T14:43:37.729Z,0.3
2023-03-19T14:49:29.225Z,0.4
2023-03-19T14:55:20.668Z,0.2
2023-03-19T15:01:11.944Z,0.3
2023-03-19T15:07:04.509Z,0.6
2023-03-19T15:12:58.539Z,0.4
2023-03-19T15:18:59.409Z,0.5
2023-03-19T15:24:52.176Z,0.2
2023-03-19T15:32:03.741Z,0.5
2023-03-19T15:37:55.380Z,1.2
2023-03-19T15:43:45.633Z,0.5
2023-03-19T15:49:35.790Z,0.3
2023-03-19T15:55:26.939Z,0.5
2023-03-19T16:01:22.269Z,0.4
2023-03-19T16:07:14.181Z,0.4
2023-03-19T16:13:05.463Z,0.5
2023-03-19T16:18:57.580Z,2.6
2023-03-19T16:24:50.545Z,1.6
2023-03-19T16:30:42.083Z,0.7
2023-03-19T16:36:32.411Z,0.6
2023-03-19T16:42:24.218Z,0.8
2023-03-19T16:48:16.354Z,2.1
2023-03-19T16:54:08.410Z,1.1
2023-03-19T17:00:00.750Z,0.7
2023-03-19T17:05:52.583Z,0.8
2023-03-19T17:11:44.572Z,2.6
2023-03-19T17:17:38.947Z,0.6
2023-03-19T17:23:29.398Z,0.6
2023-03-19T17:29:23.238Z,0.9
2023-03-19T17:35:33.069Z,1
2023-03-19T17:41:23.407Z,1.2
2023-03-19T17:47:37.488Z,4.1
2023-03-19T17:54:05.333Z,8.6
2023-03-19T17:59:58.801Z,2
2023-03-19T18:05:49.854Z,2.7
2023-03-19T18:11:48.669Z,1.9
2023-03-19T18:17:41.375Z,2
2023-03-19T18:23:30.749Z,3.4
2023-03-19T18:29:21.826Z,3.8
2023-03-19T18:35:12.765Z,4.5
2023-03-19T18:41:04.418Z,4.8
2023-03-19T18:46:57.426Z,4.6
2023-03-19T18:52:47.218Z,4.8
2023-03-19T18:58:40.038Z,5
2023-03-19T19:04:29.946Z,4.6
2023-03-19T21:44:55.629Z,13.1
2023-03-19T21:56:55.419Z,13.7
2023-03-19T22:08:47.054Z,22.4
2023-03-19T22:14:48.394Z,25.4
2023-03-19T22:21:05.645Z,26.8
2023-03-19T22:33:09.377Z,32.9
2023-03-19T22:39:06.976Z,29.6
2023-03-19T22:45:22.599Z,33.7
2023-03-19T22:51:30.777Z,32.5
2023-03-19T23:03:38.244Z,37
2023-03-19T23:09:34.426Z,38.6
2023-03-19T23:15:59.407Z,37.5
2023-03-19T23:22:05.188Z,34.8
2023-03-19T23:58:53.055Z,44.7
